Aérodrome :
LOGIN :

S'inscrire | Disclaimer

   EN    FR    IT 

 










Légende :    VFR   VFR Marginal   IFR   IFR Intensif   IFR Très Intensif
Visi : 
Plafond : 
>= 8 km
>= 3000ft
5 à 8 km
1000 à 3000 ft
1500m à 5 km
500 à 1000 ft
800 à 1500m
200 à 500 ft
< 800m
< 200 ft
Symboles :   Orages  Brouillard  Fortes neiges  Fortes précipitations  Vent > 20 kt
SIGMETs :   Divers  Orages  Givrage  Turbulence  Onde Orograph.  Cendres Volcan.






- Altitude de l'aérodrome : 13 ft
- Code IATA : OST


EBOS - Oostend bruges Int.

DERNIER METAR :
  • 110320Z 08003KT 9000 R08/0800N R26/P2000N MIFG NSC 08/08 Q1007 NOSIG

METARs EXPIRÉS :
  • 110250Z 08002KT 9000 R08/1300U R26/P2000N NSC 08/07 Q1008 BECMG 4000 BR
  • 110220Z 10003KT 9000 R08/0900D R26/1800D MIFG NSC 08/08 Q1008 BECMG 4000 BR
  • 110150Z 11003KT CAVOK 09/08 Q1008 NOSIG
  • 110120Z 10003KT CAVOK 09/09 Q1008 NOSIG
  • 110050Z VRB01KT CAVOK 09/08 Q1008 NOSIG

TAF TAF EBOS
Valide du 11 à 00h jusqu'au 12 à 06h UTC


102310Z 1100/1206 13003KT CAVOK
PROB30
TEMPO 1102/1107 4000 MIFG BR
BECMG 1110/1112 28010KT
PROB40
TEMPO 1112/1118 28015G25KT 3500 SHRA
BECMG 1119/1121 21006KT



MET'MAP, la Météo Aéronautique d'un coup d'oeil ! - Copyright ORBIFLY Décembre 2007 - Disclaimer

ORBIFLY MET'MAP TEAM :

Programmation & Développement : Alexandra Zaïnal
Sur une idée originale de : Baudouin d'Aumeries
Assistance à la programmation : Marc-Olivier Méhu
Soutien technique & logistique : Manuel Goepfert

Contact : metmap@orbifly.com




SOURCES & CREDITS :

   NOAA